Time;durP1;ratioP1;P1;durP2;ratioP2;P2;SDS_P1;SDS_P2;PMS_P1;PMS_P2;Temp;Humidity;BMP_temperature;BMP_pressure;BME280_temperature;BME280_humidity;BME280_pressure;Samples;Min_cycle;Max_cycle;Signal;HPM_P1;HPM_P2
2023/06/23 00:00:24;;;;;;;0.50;0.30;;;21.70;1.00;;;;;;5136112;27;20845;-61
2023/06/23 00:02:52;;;;;;;0.60;0.30;;;21.70;1.00;;;;;;5136200;27;20430;-63
2023/06/23 00:05:19;;;;;;;0.70;0.40;;;21.70;1.00;;;;;;5136876;27;20434;-61
2023/06/23 00:07:46;;;;;;;0.50;0.30;;;21.70;1.00;;;;;;5136884;27;20498;-61
2023/06/23 00:10:13;;;;;;;1.00;0.40;;;21.70;1.00;;;;;;5137006;27;20481;-61
2023/06/23 00:12:42;;;;;;;0.80;0.30;;;21.70;1.00;;;;;;5136323;27;20422;-61
2023/06/23 00:15:12;;;;;;;0.60;0.30;;;21.60;1.00;;;;;;5136382;27;20465;-63
2023/06/23 00:17:41;;;;;;;0.50;0.30;;;21.50;1.00;;;;;;5136636;27;20483;-61
2023/06/23 00:20:12;;;;;;;0.40;0.30;;;21.50;1.00;;;;;;5136416;27;20814;-61
2023/06/23 00:22:40;;;;;;;0.50;0.30;;;21.40;1.00;;;;;;5136714;27;20525;-61
2023/06/23 00:25:09;;;;;;;0.50;0.30;;;21.50;1.00;;;;;;5136675;27;21174;-61
2023/06/23 00:27:37;;;;;;;0.50;0.20;;;21.40;1.00;;;;;;5136900;27;20430;-61
2023/06/23 00:30:04;;;;;;;0.50;0.30;;;21.40;1.00;;;;;;5136492;27;20465;-60
2023/06/23 00:32:33;;;;;;;0.50;0.30;;;21.30;1.00;;;;;;5136696;27;20425;-59
2023/06/23 00:35:00;;;;;;;0.60;0.30;;;21.20;1.00;;;;;;5137379;27;20463;-61
2023/06/23 00:37:30;;;;;;;0.60;0.35;;;21.10;1.00;;;;;;5137115;27;20414;-63
2023/06/23 00:39:57;;;;;;;0.60;0.40;;;21.10;1.00;;;;;;5137295;27;20426;-61
2023/06/23 00:42:24;;;;;;;0.50;0.30;;;21.10;1.00;;;;;;5136705;27;20434;-62
2023/06/23 00:44:51;;;;;;;0.70;0.40;;;21.10;1.00;;;;;;5136408;27;20422;-61
2023/06/23 00:47:19;;;;;;;0.60;0.40;;;21.10;1.00;;;;;;5136646;27;20426;-62
2023/06/23 00:49:47;;;;;;;0.52;0.30;;;21.20;1.00;;;;;;5136318;27;20414;-61
2023/06/23 00:52:16;;;;;;;0.73;0.30;;;21.30;1.00;;;;;;5136390;27;20426;-61
2023/06/23 00:54:43;;;;;;;0.50;0.30;;;21.40;1.00;;;;;;5136189;27;20426;-62
2023/06/23 00:57:11;;;;;;;0.50;0.30;;;21.30;1.00;;;;;;5136117;27;20475;-63
2023/06/23 00:59:38;;;;;;;0.50;0.30;;;21.30;1.00;;;;;;5135910;27;20525;-62
2023/06/23 01:02:05;;;;;;;0.57;0.30;;;21.30;1.00;;;;;;5135125;27;20841;-61
2023/06/23 01:04:34;;;;;;;0.60;0.37;;;21.20;1.00;;;;;;5135857;27;20422;-61
2023/06/23 01:07:13;;;;;;;0.50;0.30;;;20.90;1.00;;;;;;5136085;28;20426;-60
2023/06/23 01:09:49;;;;;;;0.60;0.30;;;20.80;45.40;;;;;;5134766;28;20429;-61
2023/06/23 01:12:25;;;;;;;0.50;0.30;;;21.00;35.50;;;;;;5134474;28;20425;-59
2023/06/23 01:14:59;;;;;;;0.70;0.40;;;21.30;24.50;;;;;;5134207;28;20450;-60
2023/06/23 01:17:32;;;;;;;0.60;0.40;;;21.10;10.70;;;;;;5135293;28;20422;-60
2023/06/23 01:20:16;;;;;;;0.50;0.40;;;21.00;35.70;;;;;;5135678;28;20475;-58
2023/06/23 01:22:57;;;;;;;0.70;0.40;;;21.10;51.20;;;;;;5135763;28;20517;-60
2023/06/23 01:25:38;;;;;;;0.60;0.40;;;21.00;60.40;;;;;;5135851;27;20422;-59
2023/06/23 01:28:30;;;;;;;0.73;0.40;;;21.10;52.60;;;;;;5140174;27;20517;-58
2023/06/23 01:31:00;;;;;;;0.70;0.40;;;20.90;68.20;;;;;;5136429;27;20545;-57
2023/06/23 01:33:36;;;;;;;0.60;0.40;;;20.60;99.90;;;;;;5139364;27;20422;-58
2023/06/23 01:36:08;;;;;;;1.00;0.50;;;20.50;93.40;;;;;;5139778;27;20422;-59
2023/06/23 01:38:41;;;;;;;0.90;0.50;;;20.40;97.60;;;;;;5139873;27;20414;-60
2023/06/23 01:41:12;;;;;;;0.90;0.50;;;20.30;99.90;;;;;;5139556;27;20414;-56
2023/06/23 01:43:42;;;;;;;1.10;0.50;;;20.30;82.50;;;;;;5139712;27;20550;-60
2023/06/23 01:46:14;;;;;;;1.30;0.60;;;20.20;86.00;;;;;;5139048;27;20494;-58
2023/06/23 01:48:46;;;;;;;1.00;0.60;;;20.10;83.90;;;;;;5139428;27;20426;-58
2023/06/23 01:51:14;;;;;;;1.00;0.60;;;20.00;54.70;;;;;;5139816;27;20433;-58
2023/06/23 01:53:42;;;;;;;1.10;0.80;;;19.80;56.10;;;;;;5139179;27;20422;-58
2023/06/23 01:56:11;;;;;;;0.90;0.60;;;19.80;68.30;;;;;;5138942;27;20486;-59
2023/06/23 01:58:39;;;;;;;0.90;0.60;;;20.00;60.50;;;;;;5139201;27;20470;-58
2023/06/23 02:01:07;;;;;;;1.10;0.70;;;20.00;76.30;;;;;;5138839;27;20471;-59
2023/06/23 02:03:37;;;;;;;1.30;0.60;;;20.00;27.70;;;;;;5138215;27;20901;-59
2023/06/23 02:06:05;;;;;;;0.90;0.60;;;19.80;67.70;;;;;;5138587;27;20434;-58
2023/06/23 02:08:35;;;;;;;0.90;0.60;;;19.90;80.20;;;;;;5138494;27;20426;-59
2023/06/23 02:11:03;;;;;;;1.10;0.60;;;19.90;57.70;;;;;;5138053;27;20395;-58
2023/06/23 02:13:32;;;;;;;1.08;0.60;;;19.70;86.70;;;;;;5138575;27;20420;-59
2023/06/23 02:16:01;;;;;;;1.20;0.52;;;19.50;90.40;;;;;;5138675;27;20422;-58
2023/06/23 02:18:29;;;;;;;1.00;0.60;;;19.50;79.60;;;;;;5139355;27;20426;-59
2023/06/23 02:20:58;;;;;;;0.73;0.50;;;19.60;82.80;;;;;;5138718;27;20768;-59
2023/06/23 02:23:26;;;;;;;0.77;0.50;;;19.60;86.80;;;;;;5138556;27;20426;-59
2023/06/23 02:25:54;;;;;;;0.70;0.50;;;19.60;57.60;;;;;;5138865;27;20418;-59
2023/06/23 02:28:22;;;;;;;0.70;0.40;;;19.80;32.60;;;;;;5138963;27;20775;-59
2023/06/23 02:30:50;;;;;;;0.80;0.50;;;19.70;47.10;;;;;;5138659;27;20421;-59
2023/06/23 02:33:17;;;;;;;0.80;0.40;;;19.70;43.40;;;;;;5138747;27;20881;-59
2023/06/23 02:35:44;;;;;;;0.80;0.50;;;19.60;52.40;;;;;;5138888;27;20485;-59
2023/06/23 02:38:16;;;;;;;0.70;0.50;;;19.60;74.30;;;;;;5138545;27;20426;-59
2023/06/23 02:40:45;;;;;;;0.80;0.50;;;19.70;52.30;;;;;;5138583;27;20818;-60
2023/06/23 02:43:18;;;;;;;1.20;0.60;;;19.60;28.80;;;;;;5138482;27;20506;-59
2023/06/23 02:45:48;;;;;;;0.82;0.50;;;19.40;41.90;;;;;;5138359;27;20760;-58
2023/06/23 02:48:18;;;;;;;1.00;0.70;;;19.40;57.30;;;;;;5138673;27;20521;-59
2023/06/23 02:50:46;;;;;;;0.93;0.60;;;19.40;31.00;;;;;;5138619;27;20426;-59
2023/06/23 02:53:18;;;;;;;1.00;0.70;;;19.60;53.30;;;;;;5138124;27;20477;-58
2023/06/23 02:55:47;;;;;;;1.40;0.70;;;19.50;20.50;;;;;;5138142;27;20742;-59
2023/06/23 02:58:17;;;;;;;1.58;0.80;;;19.50;36.40;;;;;;5138422;27;20479;-58
2023/06/23 03:00:45;;;;;;;1.40;1.00;;;19.50;56.10;;;;;;5136976;27;20426;-58
2023/06/23 03:03:15;;;;;;;1.40;0.90;;;19.30;27.00;;;;;;5136474;27;20430;-60
2023/06/23 03:05:43;;;;;;;1.30;0.90;;;19.60;31.60;;;;;;5136677;27;20495;-60
2023/06/23 03:08:11;;;;;;;1.73;0.97;;;19.60;15.50;;;;;;5136052;27;20476;-59
2023/06/23 03:10:39;;;;;;;1.70;1.00;;;19.40;17.30;;;;;;5136061;27;20703;-59
2023/06/23 03:13:07;;;;;;;1.13;0.90;;;19.30;41.20;;;;;;5137065;27;20422;-58
2023/06/23 03:15:36;;;;;;;2.10;1.10;;;19.20;76.60;;;;;;5138140;27;20889;-60
2023/06/23 03:18:07;;;;;;;1.75;1.30;;;19.40;40.90;;;;;;5137967;27;20446;-62
2023/06/23 03:20:38;;;;;;;1.60;1.10;;;19.60;37.20;;;;;;5137018;27;20425;-58
2023/06/23 03:23:10;;;;;;;2.10;1.30;;;19.70;11.70;;;;;;5136181;27;20430;-58
2023/06/23 03:25:40;;;;;;;1.70;1.10;;;19.70;1.00;;;;;;5136441;27;20470;-60
2023/06/23 03:28:10;;;;;;;1.80;1.10;;;19.80;1.00;;;;;;5136228;27;21032;-60
2023/06/23 03:30:40;;;;;;;1.90;1.20;;;19.80;1.00;;;;;;5136131;27;20490;-59
2023/06/23 03:33:13;;;;;;;1.70;1.20;;;19.70;1.00;;;;;;5136403;27;20854;-59
2023/06/23 03:35:43;;;;;;;2.95;1.60;;;19.70;1.00;;;;;;5137134;27;20423;-59
2023/06/23 03:38:14;;;;;;;1.40;1.10;;;19.70;1.00;;;;;;5137386;27;20422;-59
2023/06/23 03:40:47;;;;;;;2.30;1.70;;;19.80;1.00;;;;;;5137414;27;20475;-60
2023/06/23 03:43:19;;;;;;;2.30;1.60;;;19.80;1.00;;;;;;5137398;27;20431;-60
2023/06/23 03:45:49;;;;;;;1.50;1.10;;;19.80;1.00;;;;;;5137254;27;20448;-59
2023/06/23 03:48:18;;;;;;;1.73;1.40;;;19.70;1.00;;;;;;5136807;27;20422;-58
2023/06/23 03:50:46;;;;;;;2.10;1.30;;;19.70;1.00;;;;;;5135089;27;20505;-59
2023/06/23 03:53:15;;;;;;;2.45;1.50;;;19.70;1.00;;;;;;5136981;27;20523;-60
2023/06/23 03:55:44;;;;;;;2.70;1.60;;;19.80;1.00;;;;;;5136253;27;20422;-59
2023/06/23 03:58:13;;;;;;;2.30;1.70;;;19.80;1.00;;;;;;5136985;27;20848;-59
2023/06/23 04:00:41;;;;;;;2.78;1.33;;;19.60;1.00;;;;;;5135760;27;20471;-61
2023/06/23 04:03:11;;;;;;;2.47;1.45;;;19.80;1.00;;;;;;5135597;27;20430;-59
2023/06/23 04:05:40;;;;;;;2.67;1.50;;;19.80;1.00;;;;;;5136677;27;20777;-59
2023/06/23 04:08:09;;;;;;;1.83;1.35;;;19.90;1.00;;;;;;5136486;27;20445;-60
2023/06/23 04:10:38;;;;;;;2.87;1.90;;;20.00;1.00;;;;;;5136200;27;20449;-60
2023/06/23 04:13:08;;;;;;;2.30;1.50;;;20.10;1.00;;;;;;5135724;27;20418;-60
2023/06/23 04:15:38;;;;;;;2.63;1.83;;;20.10;1.00;;;;;;5135495;27;20426;-60
2023/06/23 04:18:08;;;;;;;2.30;2.10;;;19.80;1.00;;;;;;5135976;27;20466;-59
2023/06/23 04:20:35;;;;;;;2.53;1.87;;;19.90;1.00;;;;;;5134418;27;20516;-61
2023/06/23 04:23:05;;;;;;;3.30;1.67;;;20.10;1.00;;;;;;5133862;27;20430;-61
2023/06/23 04:25:32;;;;;;;2.70;1.60;;;20.20;1.00;;;;;;5134248;27;20748;-61
2023/06/23 04:28:04;;;;;;;3.00;1.70;;;20.20;1.00;;;;;;5131905;27;20464;-61
2023/06/23 04:30:35;;;;;;;2.80;1.60;;;20.30;1.00;;;;;;5134710;27;20750;-60
2023/06/23 04:33:02;;;;;;;3.20;2.00;;;20.20;99.90;;;;;;5133985;27;20491;-61
2023/06/23 04:35:29;;;;;;;3.17;1.70;;;20.20;1.00;;;;;;5130821;27;20422;-59
2023/06/23 04:38:00;;;;;;;2.45;1.90;;;20.20;1.00;;;;;;5133053;27;20414;-61
2023/06/23 04:40:33;;;;;;;2.50;1.70;;;20.20;1.00;;;;;;5132330;27;20780;-61
2023/06/23 04:43:09;;;;;;;2.47;1.90;;;20.10;1.00;;;;;;5131791;27;20471;-60
2023/06/23 04:45:41;;;;;;;2.58;1.88;;;20.20;99.90;;;;;;5130989;27;20426;-60
2023/06/23 04:48:12;;;;;;;2.20;1.70;;;20.30;99.90;;;;;;5131704;27;20767;-61
2023/06/23 04:50:41;;;;;;;3.40;1.90;;;20.50;99.90;;;;;;5131751;27;20739;-59
2023/06/23 04:53:17;;;;;;;2.80;2.03;;;20.50;99.90;;;;;;5131487;27;20772;-60
2023/06/23 04:55:48;;;;;;;3.42;2.90;;;20.60;99.90;;;;;;5134080;27;20696;-59
2023/06/23 04:58:19;;;;;;;2.72;2.45;;;20.50;99.90;;;;;;5133510;27;20450;-59
2023/06/23 05:00:48;;;;;;;2.70;2.47;;;20.50;99.90;;;;;;5132022;27;20426;-61
2023/06/23 05:03:17;;;;;;;3.95;2.80;;;20.50;99.90;;;;;;5133820;27;20736;-60
2023/06/23 05:05:47;;;;;;;3.22;2.92;;;20.20;99.90;;;;;;5132269;27;20557;-60
2023/06/23 05:08:14;;;;;;;3.60;2.25;;;20.10;99.90;;;;;;5134075;28;20432;-60
2023/06/23 05:10:42;;;;;;;3.40;2.65;;;20.10;99.90;;;;;;5133580;28;20482;-58
2023/06/23 05:13:12;;;;;;;3.20;2.83;;;20.20;99.90;;;;;;5134682;28;20427;-59
2023/06/23 05:15:39;;;;;;;5.70;3.90;;;20.40;99.90;;;;;;5134457;28;20426;-60
2023/06/23 05:18:10;;;;;;;3.95;3.65;;;20.30;99.90;;;;;;5134075;28;20486;-59
2023/06/23 05:20:40;;;;;;;4.70;3.47;;;20.20;99.90;;;;;;5133506;28;20872;-59
2023/06/23 05:23:08;;;;;;;5.37;3.53;;;20.30;99.90;;;;;;5133501;28;20740;-59
2023/06/23 05:25:37;;;;;;;4.20;3.43;;;20.40;99.90;;;;;;5134062;28;20419;-60
2023/06/23 05:28:06;;;;;;;5.05;4.55;;;20.40;99.90;;;;;;5133157;28;20426;-59
2023/06/23 05:30:36;;;;;;;6.25;4.85;;;20.40;99.90;;;;;;5132767;28;20426;-60
2023/06/23 05:33:07;;;;;;;5.50;4.40;;;20.40;99.90;;;;;;5132114;28;20917;-59
2023/06/23 05:35:38;;;;;;;6.30;4.40;;;20.40;99.90;;;;;;5132660;28;20426;-60
2023/06/23 05:38:06;;;;;;;6.53;5.13;;;20.40;99.90;;;;;;5132553;28;20615;-60
2023/06/23 05:40:34;;;;;;;7.10;5.10;;;20.50;99.90;;;;;;5132918;28;20487;-60
2023/06/23 05:43:01;;;;;;;6.80;4.80;;;20.50;99.90;;;;;;5132207;28;20423;-60
2023/06/23 05:45:28;;;;;;;5.85;5.15;;;20.60;99.90;;;;;;5133015;28;20430;-58
2023/06/23 05:48:02;;;;;;;7.10;5.53;;;20.60;99.90;;;;;;5134648;28;20418;-60
2023/06/23 05:50:34;;;;;;;6.00;4.80;;;20.60;99.90;;;;;;5132241;28;20431;-60
2023/06/23 05:53:07;;;;;;;5.93;4.60;;;20.60;99.90;;;;;;5133204;28;20458;-60
2023/06/23 05:55:38;;;;;;;6.65;4.63;;;20.50;99.90;;;;;;5133411;28;20436;-60
2023/06/23 05:58:09;;;;;;;7.60;5.63;;;20.50;99.90;;;;;;5132286;28;20422;-61
2023/06/23 06:00:41;;;;;;;5.90;4.30;;;20.50;99.90;;;;;;5131919;28;20425;-60
2023/06/23 06:03:14;;;;;;;6.55;5.38;;;20.60;99.90;;;;;;5131674;28;20425;-61
2023/06/23 06:05:45;;;;;;;6.13;5.53;;;20.40;99.90;;;;;;5131832;28;20414;-61
2023/06/23 06:08:14;;;;;;;5.22;4.35;;;20.40;99.90;;;;;;5132791;28;21531;-61
2023/06/23 06:10:43;;;;;;;7.15;5.30;;;20.60;99.90;;;;;;5132018;28;20425;-59
2023/06/23 06:13:13;;;;;;;6.00;4.78;;;20.60;99.90;;;;;;5132873;27;20906;-61
2023/06/23 06:15:40;;;;;;;7.73;4.83;;;20.90;99.90;;;;;;5135796;27;20430;-60
2023/06/23 06:18:11;;;;;;;6.22;4.80;;;21.10;99.90;;;;;;5135890;27;20461;-59
2023/06/23 06:20:42;;;;;;;5.25;4.63;;;21.10;99.90;;;;;;5125342;27;21087;-59
2023/06/23 06:23:11;;;;;;;5.20;4.00;;;21.20;99.90;;;;;;5132413;27;20421;-59
2023/06/23 06:25:41;;;;;;;5.45;3.78;;;21.20;99.90;;;;;;5114667;27;20489;-59
2023/06/23 06:28:13;;;;;;;4.63;4.23;;;21.40;99.90;;;;;;5129561;27;20429;-60
2023/06/23 06:30:41;;;;;;;6.50;4.80;;;21.40;99.90;;;;;;5135770;27;20425;-59
2023/06/23 06:33:11;;;;;;;4.07;3.67;;;21.60;99.90;;;;;;5136347;27;20734;-60
2023/06/23 06:35:41;;;;;;;6.50;4.47;;;21.70;99.90;;;;;;5135101;27;20947;-60
2023/06/23 06:38:10;;;;;;;6.55;4.70;;;21.60;99.90;;;;;;5135337;27;20429;-60
2023/06/23 06:40:40;;;;;;;7.25;5.70;;;21.70;99.90;;;;;;5133024;27;20415;-60
2023/06/23 06:43:07;;;;;;;5.38;4.43;;;21.70;99.90;;;;;;5131903;27;20426;-59
2023/06/23 06:45:34;;;;;;;6.47;4.50;;;21.70;99.90;;;;;;5132403;27;20434;-60
2023/06/23 06:48:03;;;;;;;5.90;4.55;;;21.60;99.90;;;;;;5132373;27;20433;-59
2023/06/23 06:50:31;;;;;;;5.55;4.18;;;21.60;99.90;;;;;;5132179;27;20422;-59
2023/06/23 06:52:59;;;;;;;5.60;4.10;;;21.80;99.90;;;;;;5128246;27;20422;-59
2023/06/23 06:55:26;;;;;;;5.22;4.22;;;21.90;99.90;;;;;;5133423;27;20414;-61
2023/06/23 06:57:55;;;;;;;4.93;4.20;;;21.90;99.90;;;;;;5130026;27;20792;-61
2023/06/23 07:00:25;;;;;;;5.78;5.18;;;21.90;99.90;;;;;;5112469;28;20436;-62
2023/06/23 07:02:54;;;;;;;6.70;5.10;;;21.80;99.90;;;;;;5112965;28;20431;-61
2023/06/23 07:05:22;;;;;;;6.90;5.50;;;21.90;99.90;;;;;;5113251;28;20435;-60
2023/06/23 07:07:49;;;;;;;7.00;4.80;;;21.80;99.90;;;;;;5113656;28;20423;-61
2023/06/23 07:10:16;;;;;;;5.72;5.13;;;21.70;99.90;;;;;;5115569;27;20423;-61
2023/06/23 07:12:43;;;;;;;6.13;4.77;;;21.80;99.90;;;;;;5133381;27;20795;-60
2023/06/23 07:15:12;;;;;;;6.80;4.50;;;21.60;99.90;;;;;;5121218;27;20477;-61
2023/06/23 07:17:39;;;;;;;3.60;3.00;;;21.50;99.90;;;;;;5112492;28;20485;-60
2023/06/23 07:20:07;;;;;;;5.85;4.57;;;21.70;99.90;;;;;;5123545;27;20512;-60
2023/06/23 07:22:34;;;;;;;5.50;3.53;;;21.80;99.90;;;;;;5131960;27;20472;-61
2023/06/23 07:25:01;;;;;;;4.22;3.60;;;22.00;99.90;;;;;;5111891;27;20424;-60
2023/06/23 07:27:28;;;;;;;4.85;4.22;;;22.00;99.90;;;;;;5112567;28;20427;-62
2023/06/23 07:29:55;;;;;;;5.10;4.60;;;21.60;99.90;;;;;;5113311;28;20766;-62
2023/06/23 07:32:23;;;;;;;4.35;3.65;;;21.60;99.90;;;;;;5112082;28;20424;-62
2023/06/23 07:34:50;;;;;;;4.07;3.53;;;21.70;99.90;;;;;;5110884;28;20446;-62
2023/06/23 07:37:17;;;;;;;4.32;2.92;;;21.60;99.90;;;;;;5112768;28;20420;-61
2023/06/23 07:39:44;;;;;;;3.40;2.30;;;21.90;99.90;;;;;;5115499;28;20431;-62
2023/06/23 07:42:11;;;;;;;4.97;3.78;;;21.80;99.90;;;;;;5115156;28;20420;-62
2023/06/23 07:44:38;;;;;;;3.40;2.27;;;21.90;99.90;;;;;;5114754;28;20433;-63
2023/06/23 07:47:06;;;;;;;3.83;2.70;;;21.90;99.90;;;;;;5115806;27;20425;-62
2023/06/23 07:49:35;;;;;;;2.83;2.20;;;22.00;99.90;;;;;;5131286;27;20513;-62
2023/06/23 07:52:04;;;;;;;3.60;2.88;;;22.30;99.90;;;;;;5127138;27;20436;-62
2023/06/23 07:54:32;;;;;;;4.18;2.33;;;22.50;99.90;;;;;;5131822;27;20841;-62
2023/06/23 07:57:00;;;;;;;3.78;2.70;;;22.60;99.90;;;;;;5121895;27;20724;-59
2023/06/23 07:59:27;;;;;;;3.38;2.22;;;22.80;99.90;;;;;;5114622;28;20847;-61
2023/06/23 08:01:54;;;;;;;2.80;2.10;;;22.80;99.90;;;;;;5113665;28;20421;-59
2023/06/23 08:04:22;;;;;;;2.47;1.70;;;22.70;99.90;;;;;;5113209;28;20443;-59
2023/06/23 08:06:51;;;;;;;4.75;2.78;;;22.70;99.90;;;;;;5112031;28;20475;-60
2023/06/23 08:09:18;;;;;;;3.45;2.33;;;22.60;99.90;;;;;;5114258;28;20477;-59
2023/06/23 08:11:44;;;;;;;3.60;2.77;;;22.60;99.90;;;;;;5114513;28;20839;-60
2023/06/23 08:14:12;;;;;;;3.40;2.20;;;22.60;99.90;;;;;;5111846;28;20888;-61
2023/06/23 08:16:39;;;;;;;3.88;2.58;;;22.50;99.90;;;;;;5113156;28;20427;-61
2023/06/23 08:19:06;;;;;;;3.40;2.38;;;22.30;99.90;;;;;;5113278;28;20748;-60
2023/06/23 08:21:34;;;;;;;2.40;1.63;;;22.30;99.90;;;;;;5110165;28;20424;-60
2023/06/23 08:24:02;;;;;;;3.05;2.30;;;22.40;99.90;;;;;;5112348;28;20853;-60
2023/06/23 08:26:29;;;;;;;3.97;2.50;;;22.40;99.90;;;;;;5114469;28;20432;-60
2023/06/23 08:28:56;;;;;;;2.70;2.00;;;22.10;99.90;;;;;;5113481;28;20473;-60
2023/06/23 08:31:23;;;;;;;3.80;2.28;;;22.40;99.90;;;;;;5114960;28;20427;-60
2023/06/23 08:33:50;;;;;;;4.85;3.10;;;22.40;99.90;;;;;;5114776;28;20427;-60
2023/06/23 08:36:17;;;;;;;2.95;2.20;;;22.40;99.90;;;;;;5114460;28;20423;-60
2023/06/23 08:38:45;;;;;;;3.50;2.20;;;22.30;99.90;;;;;;5113175;28;20473;-65
2023/06/23 08:41:13;;;;;;;3.37;2.20;;;22.50;99.90;;;;;;5112129;28;20435;-65
2023/06/23 08:43:45;;;;;;;2.40;1.80;;;22.40;99.90;;;;;;5114185;28;20480;-61
2023/06/23 08:46:14;;;;;;;3.00;2.13;;;22.50;99.90;;;;;;5112576;28;20539;-60
2023/06/23 08:48:44;;;;;;;2.63;1.60;;;22.60;99.90;;;;;;5113118;28;20523;-59
2023/06/23 08:51:11;;;;;;;2.85;1.90;;;22.70;99.90;;;;;;5113274;28;20428;-62
2023/06/23 08:53:38;;;;;;;2.60;1.52;;;22.60;99.90;;;;;;5119610;27;20440;-59
2023/06/23 08:56:06;;;;;;;2.78;1.83;;;22.60;99.90;;;;;;5129882;27;20417;-59
2023/06/23 08:58:35;;;;;;;2.67;2.10;;;22.60;99.90;;;;;;5133775;27;20429;-59
2023/06/23 09:01:02;;;;;;;2.30;2.08;;;22.90;99.90;;;;;;5131798;27;20491;-59
2023/06/23 09:03:29;;;;;;;4.60;2.50;;;23.30;99.90;;;;;;5132399;27;20868;-58
2023/06/23 09:05:56;;;;;;;2.50;1.90;;;23.30;99.90;;;;;;5133132;27;20884;-59
2023/06/23 09:08:23;;;;;;;2.63;1.60;;;23.10;99.90;;;;;;5133292;27;20490;-59
2023/06/23 09:10:51;;;;;;;3.27;1.90;;;23.30;99.90;;;;;;5133165;27;20423;-59
2023/06/23 09:13:24;;;;;;;3.20;2.13;;;23.40;99.90;;;;;;5132363;27;20419;-59
2023/06/23 09:15:54;;;;;;;2.70;1.80;;;23.30;99.90;;;;;;5130709;28;20434;-59
2023/06/23 09:18:21;;;;;;;2.90;1.90;;;23.10;99.90;;;;;;5132532;28;20448;-59
2023/06/23 09:20:49;;;;;;;2.10;1.50;;;23.10;99.90;;;;;;5132907;28;20434;-59
2023/06/23 09:23:17;;;;;;;2.75;1.85;;;23.30;99.90;;;;;;5131634;28;20729;-60
2023/06/23 09:25:47;;;;;;;2.58;2.10;;;23.50;99.90;;;;;;5130376;28;20430;-60
2023/06/23 09:28:25;;;;;;;2.20;1.60;;;23.50;99.90;;;;;;5130521;28;20422;-59
2023/06/23 09:30:54;;;;;;;2.75;1.60;;;23.60;99.90;;;;;;5130965;28;20474;-61
2023/06/23 09:33:22;;;;;;;2.20;2.00;;;23.60;99.90;;;;;;5125265;28;20729;-60
2023/06/23 09:35:51;;;;;;;2.50;1.70;;;23.80;99.90;;;;;;5124549;28;20422;-60
2023/06/23 09:38:19;;;;;;;2.30;1.80;;;24.00;99.90;;;;;;5129730;28;20426;-60
2023/06/23 09:40:47;;;;;;;4.75;4.05;;;23.60;99.90;;;;;;5120246;28;20507;-59
2023/06/23 09:43:15;;;;;;;2.53;2.10;;;23.70;99.90;;;;;;5127997;28;20423;-60
2023/06/23 09:45:43;;;;;;;2.55;1.48;;;23.70;99.90;;;;;;5132316;28;20536;-58
2023/06/23 09:48:19;;;;;;;2.00;1.13;;;23.80;99.90;;;;;;5136010;27;20803;-60
2023/06/23 09:50:59;;;;;;;2.30;1.23;;;23.70;99.90;;;;;;5136869;27;20481;-60
2023/06/23 09:53:26;;;;;;;1.70;1.20;;;23.70;99.90;;;;;;5135890;27;20470;-62
2023/06/23 09:55:53;;;;;;;2.20;1.30;;;23.70;99.90;;;;;;5134069;27;20603;-59
2023/06/23 09:58:20;;;;;;;2.63;1.30;;;23.70;99.90;;;;;;5134360;27;20429;-60
2023/06/23 10:00:47;;;;;;;1.40;1.10;;;23.90;99.90;;;;;;5132393;27;20426;-59
2023/06/23 10:03:14;;;;;;;2.08;1.20;;;24.00;99.90;;;;;;5132698;27;20434;-60
2023/06/23 10:05:43;;;;;;;1.60;1.30;;;24.00;99.90;;;;;;5132635;27;20639;-59
2023/06/23 10:08:13;;;;;;;2.63;1.40;;;24.30;99.90;;;;;;5130349;27;20429;-58
2023/06/23 10:10:44;;;;;;;1.90;1.27;;;24.50;99.90;;;;;;5134376;27;20440;-61
2023/06/23 10:13:11;;;;;;;3.20;1.80;;;24.80;99.90;;;;;;5133191;27;20423;-60
2023/06/23 10:15:41;;;;;;;1.90;1.20;;;24.60;99.90;;;;;;5133680;27;20753;-60
2023/06/23 10:18:10;;;;;;;1.80;1.20;;;25.00;99.90;;;;;;5136106;27;20426;-60
2023/06/23 10:20:37;;;;;;;1.80;1.30;;;25.10;99.90;;;;;;5135558;27;20419;-60
2023/06/23 10:23:09;;;;;;;1.60;1.30;;;25.50;99.90;;;;;;5135145;27;20418;-59
2023/06/23 10:25:37;;;;;;;2.00;1.40;;;25.50;99.90;;;;;;5128403;27;20430;-60
2023/06/23 10:28:10;;;;;;;1.80;1.40;;;25.70;99.90;;;;;;5115248;27;20516;-62
2023/06/23 10:30:38;;;;;;;2.00;1.23;;;25.60;99.90;;;;;;5131968;27;20426;-60
2023/06/23 10:33:10;;;;;;;1.60;1.30;;;25.50;99.90;;;;;;5120932;27;20430;-60
2023/06/23 10:35:38;;;;;;;2.03;1.30;;;25.30;99.90;;;;;;5123206;27;20431;-61
2023/06/23 10:38:12;;;;;;;1.40;1.10;;;25.10;99.90;;;;;;5113689;28;20439;-60
2023/06/23 10:40:40;;;;;;;1.80;1.10;;;25.00;99.90;;;;;;5112441;28;20449;-60
2023/06/23 10:43:10;;;;;;;2.20;1.25;;;24.70;99.90;;;;;;5112817;28;20469;-61
2023/06/23 10:45:39;;;;;;;1.30;1.10;;;24.30;99.90;;;;;;5111952;28;20489;-60
2023/06/23 10:48:09;;;;;;;2.22;1.30;;;24.10;99.90;;;;;;5113249;28;20750;-59
2023/06/23 10:50:38;;;;;;;2.00;1.20;;;24.10;99.90;;;;;;5115026;28;20785;-59
2023/06/23 10:53:12;;;;;;;1.88;1.30;;;24.30;99.90;;;;;;5114220;28;20492;-60
2023/06/23 10:55:41;;;;;;;1.80;1.25;;;24.70;99.90;;;;;;5113885;28;20480;-60
2023/06/23 10:58:09;;;;;;;2.00;1.30;;;24.70;99.90;;;;;;5113375;28;20452;-60
2023/06/23 11:00:36;;;;;;;2.10;1.30;;;24.60;99.90;;;;;;5112282;28;20543;-60
2023/06/23 11:03:09;;;;;;;1.60;1.20;;;24.80;99.90;;;;;;5111909;28;20428;-60
2023/06/23 11:05:40;;;;;;;1.50;1.10;;;25.00;99.90;;;;;;5111594;28;20464;-64
2023/06/23 11:08:12;;;;;;;2.00;1.10;;;25.50;99.90;;;;;;5120620;27;20419;-62
2023/06/23 11:10:51;;;;;;;2.00;1.20;;;25.40;99.90;;;;;;5132494;27;20524;-62
2023/06/23 11:13:18;;;;;;;1.60;1.15;;;24.80;99.90;;;;;;5117087;27;20412;-62
2023/06/23 11:15:58;;;;;;;2.17;1.30;;;24.30;99.90;;;;;;5114073;28;20461;-63
2023/06/23 11:18:27;;;;;;;1.63;1.20;;;24.40;99.90;;;;;;5114095;28;20431;-63
2023/06/23 11:21:01;;;;;;;1.50;1.10;;;24.50;99.90;;;;;;5111957;28;20493;-62
2023/06/23 11:23:30;;;;;;;1.35;1.15;;;24.80;99.90;;;;;;5131357;27;20741;-63
2023/06/23 11:25:57;;;;;;;1.60;1.10;;;25.30;99.90;;;;;;5133121;27;20428;-64
2023/06/23 11:28:29;;;;;;;1.30;1.10;;;26.10;99.90;;;;;;5134984;27;20902;-63
2023/06/23 11:31:12;;;;;;;1.40;0.97;;;26.60;99.90;;;;;;5128131;27;21158;-63
2023/06/23 11:33:40;;;;;;;1.50;1.05;;;26.70;99.90;;;;;;5108920;28;20720;-63
2023/06/23 11:36:09;;;;;;;1.70;1.20;;;26.60;99.90;;;;;;5108866;27;20428;-61
2023/06/23 11:38:40;;;;;;;1.42;0.98;;;26.90;99.90;;;;;;5119610;27;20481;-62
2023/06/23 11:41:07;;;;;;;1.30;1.10;;;27.20;99.90;;;;;;5133099;27;20418;-61
2023/06/23 11:43:35;;;;;;;2.00;1.20;;;27.10;99.90;;;;;;5124241;27;20447;-61
2023/06/23 11:46:07;;;;;;;1.40;1.10;;;26.80;99.90;;;;;;5111596;28;21049;-61
2023/06/23 11:48:36;;;;;;;1.40;1.20;;;26.50;99.90;;;;;;5113455;28;20513;-58
2023/06/23 11:51:04;;;;;;;1.13;1.00;;;25.90;99.90;;;;;;5113056;28;20460;-63
2023/06/23 11:53:32;;;;;;;1.40;0.90;;;26.40;99.90;;;;;;5113196;28;20738;-60
2023/06/23 11:56:01;;;;;;;1.30;1.00;;;26.70;99.90;;;;;;5111378;28;20416;-59
2023/06/23 11:58:32;;;;;;;1.20;1.02;;;26.70;99.90;;;;;;5110225;28;20473;-61
2023/06/23 12:01:00;;;;;;;2.20;1.40;;;26.20;99.90;;;;;;5111188;27;20432;-60
2023/06/23 12:03:29;;;;;;;1.90;1.10;;;26.10;99.90;;;;;;5111488;27;20536;-59
2023/06/23 12:05:56;;;;;;;1.92;1.10;;;26.20;99.90;;;;;;5119766;27;20430;-60
2023/06/23 12:08:25;;;;;;;1.55;1.13;;;26.30;99.90;;;;;;5117701;27;20504;-61
2023/06/23 12:10:53;;;;;;;1.42;1.00;;;26.60;99.90;;;;;;5112433;28;20476;-60
2023/06/23 12:13:22;;;;;;;1.95;1.00;;;27.10;99.90;;;;;;5115045;27;20823;-61
2023/06/23 12:15:49;;;;;;;2.60;1.00;;;27.60;99.90;;;;;;5130177;27;20872;-61
2023/06/23 12:18:16;;;;;;;1.15;0.90;;;27.90;99.90;;;;;;5134158;27;21086;-60
2023/06/23 12:20:45;;;;;;;1.40;1.00;;;28.30;99.10;;;;;;5133240;27;20914;-62
2023/06/23 12:23:13;;;;;;;1.60;1.02;;;27.80;99.30;;;;;;5132838;27;20909;-61
2023/06/23 12:25:43;;;;;;;2.30;0.90;;;27.20;96.60;;;;;;5130705;27;20741;-61
2023/06/23 12:28:14;;;;;;;1.00;0.80;;;26.70;97.90;;;;;;5132810;27;20830;-61
2023/06/23 12:30:43;;;;;;;1.30;0.93;;;25.90;99.20;;;;;;5133984;27;20426;-61
2023/06/23 12:33:14;;;;;;;1.50;1.00;;;25.70;99.90;;;;;;5132680;27;20495;-62
2023/06/23 12:35:41;;;;;;;1.50;1.10;;;25.50;99.90;;;;;;5130839;27;20421;-62
2023/06/23 12:38:11;;;;;;;1.40;1.10;;;25.40;99.90;;;;;;5132796;27;20486;-63
2023/06/23 12:40:42;;;;;;;1.55;1.00;;;25.30;99.90;;;;;;5131670;27;20449;-62
2023/06/23 12:43:11;;;;;;;1.60;1.00;;;25.20;99.90;;;;;;5129681;27;20507;-63
2023/06/23 12:45:38;;;;;;;1.20;1.00;;;25.70;99.90;;;;;;5130487;27;20423;-62
2023/06/23 12:48:09;;;;;;;1.38;1.10;;;26.10;99.90;;;;;;5131370;27;20430;-62
2023/06/23 12:50:41;;;;;;;2.17;1.10;;;26.50;99.90;;;;;;5131341;27;20771;-61
2023/06/23 12:53:08;;;;;;;2.00;1.00;;;27.20;99.90;;;;;;5131398;27;20730;-62
2023/06/23 12:55:35;;;;;;;3.30;1.00;;;27.50;99.60;;;;;;5133540;27;20991;-62
2023/06/23 12:58:02;;;;;;;1.23;1.00;;;27.00;99.20;;;;;;5131971;27;20857;-62